Tropical Cyclones
[Index]
Main Index Home Page Stock Weather Photos Extreme Storms Discussion Storm News and Storm Chasing Reports Tropical Cyclones / Hurricanes / Typhoons Weather Data and Links Wild Fires / Bushfires Weather Observation Techniques Weather Picture Catalogue Tornado Pictures and Reports Stock Video Footage and DVDs for sale
Season 2016-2017 Tropical Cyclone BLANCHE Track Map
Season 2016-2017 Summaries (Operational Data): [AU] [SIO] [SPAC] [SH]
<<- Previous TC | 2016-2017 Season | Next TC ->>

click for intensity scale information  Lat/long Grid: Show Hide

 Date Labels: Show Hide

Operational Tropical Cyclone Data : JTWC Advisories

Name: BLANCHE
Number: 1710

01 Mar 2017 12:00 UTC to 07 Mar 2017 00:00 UTC

    date/time    lat    long     hPa   cat  kts
2017-03-01 12    7.0   135.1    1010         15          
2017-03-01 18    6.9   135.2    1010         15          
2017-03-02 00    7.0   134.9    1010         15          
2017-03-02 06    7.2   134.7    1010         15          
2017-03-02 12    7.5   134.5    1010         15          
2017-03-02 18    7.8   134.2    1005         15          
2017-03-03 00    8.0   133.8    1003         20          
2017-03-03 06    8.2   133.2    1002         20          
2017-03-03 12    8.4   132.6    1003         20          
2017-03-03 18    8.6   132.0    1004         20          
2017-03-04 00    9.1   131.6    1002         20          
2017-03-04 06    9.7   131.3    1003         20          
2017-03-04 12   10.4   131.2    1002         20          
2017-03-04 18   11.4   130.8    1002         25          
2017-03-05 00   12.0   130.0     995         30          
2017-03-05 06   12.8   129.3    1000         30          
2017-03-05 12   13.0   128.9    1000    1    35          
2017-03-05 18   13.5   128.5     995    1    45          
2017-03-06 00   14.0   128.2     991    2    50          
2017-03-06 06   15.0   127.7     999    1    35          
2017-03-06 12   16.0   127.2     999         30          
2017-03-06 18   16.3   126.4    1003         25          
2017-03-07 00   16.4   125.4    1003         20          
Winds are 10-min average.

Tropical cyclone tracks developed by Michael Bath using operational warnings and advisories and Google Maps.


[Australian Severe Weather index] [Copyright Notice] [Email Contacts] [Search This Site] [Privacy Policy]
Document: tropical_cyclone_blanche.htm Updated: 4 July 2017